Mark E Flynn — WDE5397 — position and weather

sailwx.info

Track history (hours):
 
Tides and Currents Weather Stations Pressure Air Temp Water Temp Dewpoint Dewpoint Depression Visibility Wind Speed Wind Dir Waves Ship Positions

Mark E Flynn

Owner: Maryland Marine, Inc., Orange, TX. More information available from US FCC via Universal Licensing System and Coast Guard Vessel Documentation Center.

Last reported at 2018-Jun-03 02:58 UTC. Time now 2018-Jun-19 10:30 UTC.
Position N 28°19' W 096°40'.
Warning: this ship's position is 16 days out of date.

Length 213 m; draft 2.7 m.

Type: . MMSI: 367366130.

Date/timePositionNaut miles runAvg speedWind from/ knotsBaromVisibWave heightAir tempDewpointWater temp
2018-Jun-03 02:58N 28°19' W 096°40'137 2.8
2018-Jun-01 01:45N 29°33' W 094°28'2 6.1
2018-Jun-01 01:27N 29°34' W 094°27'2 4.7
2018-Jun-01 00:58N 29°35' W 094°25'2 3.9
2018-Jun-01 00:30N 29°36' W 094°23'2 4.6
2018-May-31 23:59N 29°37' W 094°21'0 0.0
2018-May-31 23:30N 29°37' W 094°21'2 4.1
2018-May-31 23:00N 29°38' W 094°18'3 5.5
2018-May-31 22:30N 29°39' W 094°16'3 5.5
2018-May-31 22:00N 29°40' W 094°13'3 5.4
2018-May-31 21:30N 29°41' W 094°10'3 5.7
2018-May-31 21:01N 29°43' W 094°07'3 5.5
2018-May-31 20:30N 29°45' W 094°05'3 5.7
2018-May-31 20:00N 29°46' W 094°02'3 5.8
2018-May-31 19:30N 29°49' W 093°60'3 5.5
2018-May-31 19:00N 29°50' W 093°57'3 6.1
2018-May-31 18:30N 29°53' W 093°55'2 4.6
2018-May-31 18:00N 29°54' W 093°54'3 6.8
2018-May-31 17:30N 29°57' W 093°52'3 5.1
2018-May-31 17:00N 29°59' W 093°49'3 5.4
2018-May-31 16:30N 29°60' W 093°46'3 5.1
2018-May-31 15:59N 30°02' W 093°44'3 4.9
2018-May-31 15:25N 30°04' W 093°42'2 5.2
2018-May-31 15:00N 30°04' W 093°39'3 5.1
2018-May-31 14:30N 30°04' W 093°36'3 5.1
2018-May-31 14:00N 30°04' W 093°33'2 4.6
2018-May-31 13:30N 30°04' W 093°31'2 4.6
2018-May-31 13:00N 30°04' W 093°28'3 5.3
2018-May-31 12:30N 30°04' W 093°25'2 4.7
2018-May-31 12:00N 30°04' W 093°22'2 3.2
2018-May-31 11:30N 30°04' W 093°21'2 3.4
2018-May-31 11:00N 30°06' W 093°19'1 2.8
2018-May-31 10:30N 30°05' W 093°18'1 1.6
2018-May-31 10:00N 30°05' W 093°17'1 2.6
2018-May-31 09:30N 30°04' W 093°16'0 0.9
2018-May-31 09:00N 30°04' W 093°16'0 0.0
2018-May-31 08:30N 30°04' W 093°16'0 0.0
2018-May-31 08:00N 30°04' W 093°16'0 0.0
2018-May-31 07:30N 30°04' W 093°16'0 0.0
2018-May-31 06:59N 30°04' W 093°16'1 1.2
2018-May-31 06:30N 30°03' W 093°16'1 1.6
2018-May-31 06:00N 30°02' W 093°15'2 3.0
2018-May-31 05:30N 30°01' W 093°14'2 4.3
2018-May-31 05:00N 29°59' W 093°13'2 4.7
2018-May-31 04:30N 29°58' W 093°11'40 4.6
2018-May-30 19:40N 29°53' W 092°25'1 4.8
2018-May-30 19:30N 29°53' W 092°24'3 4.4
2018-May-30 18:52N 29°51' W 092°22'2 4.6
2018-May-30 18:30N 29°51' W 092°20'2 4.2
2018-May-30 18:00N 29°50' W 092°18'0 0.1
2018-May-30 17:30N 29°50' W 092°18'2 3.5
2018-May-30 17:00N 29°49' W 092°16'2 4.9
2018-May-30 16:30N 29°48' W 092°13'1 2.2
2018-May-30 16:00N 29°47' W 092°12'1 2.0
2018-May-30 15:30N 29°47' W 092°11'0 0.0
2018-May-30 15:00N 29°47' W 092°11'0 0.2
2018-May-30 14:30N 29°47' W 092°11'0 0.1
2018-May-30 14:00N 29°47' W 092°11'0 0.9
2018-May-30 13:30N 29°47' W 092°11'1 1.2
2018-May-30 13:00N 29°47' W 092°10'0 0.0
2018-May-30 12:16N 29°47' W 092°10'0 0.0
2018-May-30 12:00N 29°47' W 092°10'0 0.0
2018-May-30 11:30N 29°47' W 092°10'0 0.0
2018-May-30 11:00N 29°47' W 092°10'0 0.1
2018-May-30 10:30N 29°47' W 092°10'0 0.3
2018-May-30 09:59N 29°47' W 092°10'0 0.7
2018-May-30 09:30N 29°47' W 092°09'1 1.6
2018-May-30 09:00N 29°47' W 092°08'3 5.2
2018-May-30 08:30N 29°48' W 092°06'3 5.1
2018-May-30 08:00N 29°49' W 092°03'60 3.9
2018-May-29 16:41N 29°34' W 090°56'1 5.7
2018-May-29 16:29N 29°33' W 090°55'3 5.5
2018-May-29 15:53N 29°32' W 090°52'2 5.5
2018-May-29 15:30N 29°32' W 090°49'2 4.2
2018-May-29 15:00N 29°32' W 090°47'2 4.4
2018-May-29 14:30N 29°34' W 090°45'2 3.4
2018-May-29 13:59N 29°34' W 090°43'2 3.3
2018-May-29 13:30N 29°36' W 090°43'1 2.3
2018-May-29 13:00N 29°37' W 090°42'0 0.4
2018-May-29 12:30N 29°37' W 090°42'0 0.0
2018-May-29 12:00N 29°37' W 090°42'0 0.0
2018-May-29 11:30N 29°37' W 090°42'0 0.0
2018-May-29 11:00N 29°37' W 090°42'0 0.5
2018-May-29 10:30N 29°37' W 090°41'1 2.6
2018-May-29 10:00N 29°36' W 090°40'1 2.5
2018-May-29 09:30N 29°35' W 090°39'2 3.9
2018-May-29 09:00N 29°35' W 090°37'2 4.4
2018-May-29 08:30N 29°34' W 090°34'2 4.6
2018-May-29 08:00N 29°34' W 090°32'  
Track history (hours):
 
Tides and Currents Weather Stations Pressure Air Temp Water Temp Dewpoint Dewpoint Depression Visibility Wind Speed Wind Dir Waves Ship Positions

Mark E Flynn

Owner: Maryland Marine, Inc., Orange, TX. More information available from US FCC via Universal Licensing System and Coast Guard Vessel Documentation Center.

Last reported at 2018-Jun-03 02:58 UTC. Time now 2018-Jun-19 10:30 UTC.
Position N 28°19' W 096°40'.
Warning: this ship's position is 16 days out of date.

Length 213 m; draft 2.7 m.

Type: . MMSI: 367366130.

Date/timePositionNaut miles runAvg speedWind from/ knotsBaromVisibWave heightAir tempDewpointWater temp
2018-Jun-03 02:58N 28°19' W 096°40'137 2.8
2018-Jun-01 01:45N 29°33' W 094°28'2 6.1
2018-Jun-01 01:27N 29°34' W 094°27'2 4.7
2018-Jun-01 00:58N 29°35' W 094°25'2 3.9
2018-Jun-01 00:30N 29°36' W 094°23'2 4.6
2018-May-31 23:59N 29°37' W 094°21'0 0.0
2018-May-31 23:30N 29°37' W 094°21'2 4.1
2018-May-31 23:00N 29°38' W 094°18'3 5.5
2018-May-31 22:30N 29°39' W 094°16'3 5.5
2018-May-31 22:00N 29°40' W 094°13'3 5.4
2018-May-31 21:30N 29°41' W 094°10'3 5.7
2018-May-31 21:01N 29°43' W 094°07'3 5.5
2018-May-31 20:30N 29°45' W 094°05'3 5.7
2018-May-31 20:00N 29°46' W 094°02'3 5.8
2018-May-31 19:30N 29°49' W 093°60'3 5.5
2018-May-31 19:00N 29°50' W 093°57'3 6.1
2018-May-31 18:30N 29°53' W 093°55'2 4.6
2018-May-31 18:00N 29°54' W 093°54'3 6.8
2018-May-31 17:30N 29°57' W 093°52'3 5.1
2018-May-31 17:00N 29°59' W 093°49'3 5.4
2018-May-31 16:30N 29°60' W 093°46'3 5.1
2018-May-31 15:59N 30°02' W 093°44'3 4.9
2018-May-31 15:25N 30°04' W 093°42'2 5.2
2018-May-31 15:00N 30°04' W 093°39'3 5.1
2018-May-31 14:30N 30°04' W 093°36'3 5.1
2018-May-31 14:00N 30°04' W 093°33'2 4.6
2018-May-31 13:30N 30°04' W 093°31'2 4.6
2018-May-31 13:00N 30°04' W 093°28'3 5.3
2018-May-31 12:30N 30°04' W 093°25'2 4.7
2018-May-31 12:00N 30°04' W 093°22'2 3.2
2018-May-31 11:30N 30°04' W 093°21'2 3.4
2018-May-31 11:00N 30°06' W 093°19'1 2.8
2018-May-31 10:30N 30°05' W 093°18'1 1.6
2018-May-31 10:00N 30°05' W 093°17'1 2.6
2018-May-31 09:30N 30°04' W 093°16'0 0.9
2018-May-31 09:00N 30°04' W 093°16'0 0.0
2018-May-31 08:30N 30°04' W 093°16'0 0.0
2018-May-31 08:00N 30°04' W 093°16'0 0.0
2018-May-31 07:30N 30°04' W 093°16'0 0.0
2018-May-31 06:59N 30°04' W 093°16'1 1.2
2018-May-31 06:30N 30°03' W 093°16'1 1.6
2018-May-31 06:00N 30°02' W 093°15'2 3.0
2018-May-31 05:30N 30°01' W 093°14'2 4.3
2018-May-31 05:00N 29°59' W 093°13'2 4.7
2018-May-31 04:30N 29°58' W 093°11'40 4.6
2018-May-30 19:40N 29°53' W 092°25'1 4.8
2018-May-30 19:30N 29°53' W 092°24'3 4.4
2018-May-30 18:52N 29°51' W 092°22'2 4.6
2018-May-30 18:30N 29°51' W 092°20'2 4.2
2018-May-30 18:00N 29°50' W 092°18'0 0.1
2018-May-30 17:30N 29°50' W 092°18'2 3.5
2018-May-30 17:00N 29°49' W 092°16'2 4.9
2018-May-30 16:30N 29°48' W 092°13'1 2.2
2018-May-30 16:00N 29°47' W 092°12'1 2.0
2018-May-30 15:30N 29°47' W 092°11'0 0.0
2018-May-30 15:00N 29°47' W 092°11'0 0.2
2018-May-30 14:30N 29°47' W 092°11'0 0.1
2018-May-30 14:00N 29°47' W 092°11'0 0.9
2018-May-30 13:30N 29°47' W 092°11'1 1.2
2018-May-30 13:00N 29°47' W 092°10'0 0.0
2018-May-30 12:16N 29°47' W 092°10'0 0.0
2018-May-30 12:00N 29°47' W 092°10'0 0.0
2018-May-30 11:30N 29°47' W 092°10'0 0.0
2018-May-30 11:00N 29°47' W 092°10'0 0.1
2018-May-30 10:30N 29°47' W 092°10'0 0.3
2018-May-30 09:59N 29°47' W 092°10'0 0.7
2018-May-30 09:30N 29°47' W 092°09'1 1.6
2018-May-30 09:00N 29°47' W 092°08'3 5.2
2018-May-30 08:30N 29°48' W 092°06'3 5.1
2018-May-30 08:00N 29°49' W 092°03'60 3.9
2018-May-29 16:41N 29°34' W 090°56'1 5.7
2018-May-29 16:29N 29°33' W 090°55'3 5.5
2018-May-29 15:53N 29°32' W 090°52'2 5.5
2018-May-29 15:30N 29°32' W 090°49'2 4.2
2018-May-29 15:00N 29°32' W 090°47'2 4.4
2018-May-29 14:30N 29°34' W 090°45'2 3.4
2018-May-29 13:59N 29°34' W 090°43'2 3.3
2018-May-29 13:30N 29°36' W 090°43'1 2.3
2018-May-29 13:00N 29°37' W 090°42'0 0.4
2018-May-29 12:30N 29°37' W 090°42'0 0.0
2018-May-29 12:00N 29°37' W 090°42'0 0.0
2018-May-29 11:30N 29°37' W 090°42'0 0.0
2018-May-29 11:00N 29°37' W 090°42'0 0.5
2018-May-29 10:30N 29°37' W 090°41'1 2.6
2018-May-29 10:00N 29°36' W 090°40'1 2.5
2018-May-29 09:30N 29°35' W 090°39'2 3.9
2018-May-29 09:00N 29°35' W 090°37'2 4.4
2018-May-29 08:30N 29°34' W 090°34'2 4.6
2018-May-29 08:00N 29°34' W 090°32'  

Dump ship's entire track history